createdAt,value
2022-08-24T00:00:15.243Z,100.00
2022-08-24T00:02:43.033Z,100.00
2022-08-24T00:05:14.547Z,100.00
2022-08-24T00:07:42.551Z,100.00
2022-08-24T00:10:13.412Z,100.00
2022-08-24T00:12:41.178Z,100.00
2022-08-24T00:15:09.511Z,100.00
2022-08-24T00:17:37.280Z,100.00
2022-08-24T00:20:05.785Z,100.00
2022-08-24T00:22:33.340Z,100.00
2022-08-24T00:25:00.934Z,100.00
2022-08-24T00:27:30.022Z,100.00
2022-08-24T00:29:57.707Z,100.00
2022-08-24T00:32:25.238Z,100.00
2022-08-24T00:34:58.658Z,100.00
2022-08-24T00:37:28.404Z,100.00
2022-08-24T00:39:56.024Z,100.00
2022-08-24T00:42:24.008Z,100.00
2022-08-24T00:44:53.008Z,100.00
2022-08-24T00:47:22.242Z,100.00
2022-08-24T00:49:55.270Z,100.00
2022-08-24T00:52:25.310Z,100.00
2022-08-24T00:54:55.515Z,100.00
2022-08-24T00:57:26.410Z,100.00
2022-08-24T00:59:58.101Z,100.00
2022-08-24T01:02:29.779Z,100.00
2022-08-24T01:04:58.806Z,100.00
2022-08-24T01:07:27.607Z,100.00
2022-08-24T01:09:57.496Z,100.00
2022-08-24T01:12:25.590Z,100.00
2022-08-24T01:14:53.431Z,100.00
2022-08-24T01:17:40.594Z,100.00
2022-08-24T01:20:10.115Z,100.00
2022-08-24T01:22:45.304Z,100.00
2022-08-24T01:25:14.302Z,100.00
2022-08-24T01:27:43.475Z,100.00
2022-08-24T01:30:13.348Z,100.00
2022-08-24T01:32:40.964Z,100.00
2022-08-24T01:35:09.056Z,100.00
2022-08-24T01:37:36.929Z,100.00
2022-08-24T01:40:10.439Z,100.00
2022-08-24T01:42:39.420Z,100.00
2022-08-24T01:45:07.445Z,100.00
2022-08-24T01:47:35.867Z,100.00
2022-08-24T01:50:03.687Z,100.00
2022-08-24T01:52:48.759Z,100.00
2022-08-24T01:55:22.676Z,100.00
2022-08-24T01:57:52.082Z,100.00
2022-08-24T02:00:19.883Z,100.00
2022-08-24T02:02:47.675Z,100.00
2022-08-24T02:05:16.744Z,100.00
2022-08-24T02:07:45.882Z,100.00
2022-08-24T02:10:15.338Z,100.00
2022-08-24T02:12:45.342Z,100.00
2022-08-24T02:15:14.380Z,100.00
2022-08-24T02:17:42.387Z,100.00
2022-08-24T02:20:10.523Z,100.00
2022-08-24T02:22:38.146Z,100.00
2022-08-24T02:25:06.047Z,100.00
2022-08-24T02:27:36.032Z,100.00
2022-08-24T02:30:03.662Z,100.00
2022-08-24T02:32:32.702Z,100.00
2022-08-24T02:35:00.381Z,100.00
2022-08-24T02:37:27.939Z,100.00
2022-08-24T02:39:55.555Z,100.00
2022-08-24T02:42:25.742Z,100.00
2022-08-24T02:44:53.781Z,100.00
2022-08-24T02:47:22.756Z,100.00
2022-08-24T02:50:14.515Z,100.00
2022-08-24T02:52:42.908Z,100.00
2022-08-24T02:55:12.159Z,100.00
2022-08-24T02:57:39.959Z,100.00
2022-08-24T03:00:10.336Z,100.00
2022-08-24T03:02:40.221Z,100.00
2022-08-24T03:05:08.267Z,100.00
2022-08-24T03:07:37.397Z,100.00
2022-08-24T03:10:05.846Z,100.00
2022-08-24T03:12:34.641Z,100.00
2022-08-24T03:15:03.112Z,100.00
2022-08-24T03:17:31.407Z,100.00
2022-08-24T03:19:59.003Z,100.00
2022-08-24T03:22:26.756Z,100.00
2022-08-24T03:24:55.668Z,100.00
2022-08-24T03:27:23.418Z,100.00
2022-08-24T03:29:51.163Z,100.00
2022-08-24T03:32:19.014Z,100.00
2022-08-24T03:34:48.845Z,100.00
2022-08-24T03:37:16.969Z,100.00
2022-08-24T03:39:47.566Z,100.00
2022-08-24T03:42:16.643Z,100.00
2022-08-24T03:44:44.220Z,100.00
2022-08-24T03:47:13.292Z,100.00
2022-08-24T03:49:41.256Z,100.00
2022-08-24T03:52:09.742Z,100.00
2022-08-24T03:54:37.431Z,100.00
2022-08-24T03:57:05.118Z,100.00
2022-08-24T03:59:34.364Z,100.00
2022-08-24T04:02:09.430Z,100.00
2022-08-24T04:04:40.622Z,100.00
2022-08-24T04:07:10.685Z,100.00
2022-08-24T04:09:38.692Z,100.00
2022-08-24T04:12:06.575Z,100.00
2022-08-24T04:14:36.103Z,100.00
2022-08-24T04:17:10.512Z,100.00
2022-08-24T04:19:57.995Z,100.00
2022-08-24T04:22:35.953Z,100.00
2022-08-24T04:25:08.997Z,100.00
2022-08-24T04:27:37.527Z,100.00
2022-08-24T04:30:06.983Z,100.00
2022-08-24T04:32:47.669Z,100.00
2022-08-24T04:35:15.277Z,100.00
2022-08-24T04:37:42.908Z,100.00
2022-08-24T04:40:11.029Z,100.00
2022-08-24T04:42:45.651Z,100.00
2022-08-24T04:45:17.304Z,100.00
2022-08-24T04:47:45.425Z,100.00
2022-08-24T04:50:13.572Z,100.00
2022-08-24T04:52:41.982Z,100.00
2022-08-24T04:55:14.043Z,100.00
2022-08-24T04:57:41.627Z,100.00
2022-08-24T05:00:10.191Z,100.00
2022-08-24T05:02:44.675Z,100.00
2022-08-24T05:05:12.584Z,100.00
2022-08-24T05:07:40.130Z,100.00
2022-08-24T05:10:08.922Z,100.00
2022-08-24T05:12:36.927Z,100.00
2022-08-24T05:15:09.608Z,100.00
2022-08-24T05:17:49.948Z,100.00
2022-08-24T05:20:19.344Z,100.00
2022-08-24T05:22:46.971Z,100.00
2022-08-24T05:25:15.063Z,100.00
2022-08-24T05:27:42.686Z,100.00
2022-08-24T05:30:11.350Z,100.00
2022-08-24T05:32:39.442Z,100.00
2022-08-24T05:35:08.730Z,100.00
2022-08-24T05:37:37.167Z,100.00
2022-08-24T05:40:13.030Z,100.00
2022-08-24T05:42:44.005Z,100.00
2022-08-24T05:45:12.820Z,100.00
2022-08-24T05:47:40.494Z,100.00
2022-08-24T05:50:27.830Z,100.00
2022-08-24T05:52:55.523Z,100.00
2022-08-24T05:55:23.199Z,100.00
2022-08-24T05:57:51.688Z,100.00
2022-08-24T06:00:23.260Z,100.00
2022-08-24T06:02:52.814Z,100.00
2022-08-24T06:05:21.821Z,100.00
2022-08-24T06:07:50.952Z,100.00
2022-08-24T06:10:36.384Z,100.00
2022-08-24T06:13:05.344Z,100.00
2022-08-24T06:15:33.267Z,100.00
2022-08-24T06:18:00.994Z,100.00
2022-08-24T06:20:28.772Z,100.00
2022-08-24T06:22:57.733Z,100.00
2022-08-24T06:25:49.582Z,100.00
2022-08-24T06:28:17.177Z,100.00
2022-08-24T06:30:45.655Z,100.00
2022-08-24T06:33:18.684Z,100.00
2022-08-24T06:35:49.531Z,100.00
2022-08-24T06:38:19.556Z,100.00
2022-08-24T06:40:48.373Z,100.00
2022-08-24T06:43:16.040Z,100.00
2022-08-24T06:45:50.883Z,100.00
2022-08-24T06:48:22.066Z,100.00
2022-08-24T06:50:50.890Z,100.00
2022-08-24T06:53:19.810Z,100.00
2022-08-24T06:55:50.418Z,100.00
2022-08-24T06:58:18.389Z,100.00
2022-08-24T07:00:46.555Z,100.00
2022-08-24T07:03:15.793Z,100.00
2022-08-24T07:05:52.110Z,100.00
2022-08-24T07:08:35.916Z,100.00
2022-08-24T07:11:04.092Z,100.00
2022-08-24T07:13:31.906Z,100.00
2022-08-24T07:16:00.736Z,100.00
2022-08-24T07:18:28.965Z,100.00
2022-08-24T07:20:57.480Z,100.00
2022-08-24T07:23:42.383Z,100.00
2022-08-24T07:26:21.608Z,100.00
2022-08-24T07:28:52.372Z,100.00
2022-08-24T07:31:21.199Z,99.79
2022-08-24T07:33:57.422Z,98.72
2022-08-24T07:36:25.171Z,100.00
2022-08-24T07:38:57.440Z,99.70
2022-08-24T07:41:43.588Z,98.18
2022-08-24T07:44:17.685Z,96.53
2022-08-24T07:46:45.862Z,96.84
2022-08-24T07:49:36.185Z,92.07
2022-08-24T07:52:04.575Z,90.35
2022-08-24T07:54:32.279Z,86.04
2022-08-24T07:57:02.251Z,85.18
2022-08-24T07:59:29.847Z,86.82
2022-08-24T08:01:58.945Z,83.79
2022-08-24T08:04:26.879Z,84.48
2022-08-24T08:09:31.002Z,79.18
2022-08-24T08:11:58.770Z,80.94
2022-08-24T08:14:27.808Z,80.21
2022-08-24T08:16:56.336Z,82.85
2022-08-24T08:19:24.102Z,81.00
2022-08-24T08:22:11.735Z,75.62
2022-08-24T08:24:59.592Z,81.00
2022-08-24T08:27:27.619Z,76.49
2022-08-24T08:29:56.879Z,77.12
2022-08-24T08:32:24.529Z,79.10
2022-08-24T08:34:52.284Z,80.68
2022-08-24T08:37:20.033Z,77.05
2022-08-24T08:39:47.979Z,74.59
2022-08-24T08:42:38.462Z,75.00
2022-08-24T08:45:19.377Z,78.22
2022-08-24T08:48:05.452Z,75.50
2022-08-24T08:50:41.154Z,78.56
2022-08-24T08:53:21.056Z,79.82
2022-08-24T08:55:59.486Z,79.24
2022-08-24T08:58:40.871Z,80.34
2022-08-24T09:01:29.945Z,75.90
2022-08-24T09:04:21.007Z,75.81
2022-08-24T09:07:06.077Z,78.68
2022-08-24T09:10:02.406Z,76.64
2022-08-24T09:12:38.952Z,75.83
2022-08-24T09:15:15.634Z,79.93
2022-08-24T09:17:56.320Z,76.85
2022-08-24T09:20:32.727Z,74.80
2022-08-24T09:23:09.113Z,70.84
2022-08-24T09:25:41.159Z,69.91
2022-08-24T09:28:28.813Z,68.82
2022-08-24T09:31:10.636Z,69.85
2022-08-24T09:33:45.129Z,66.94
2022-08-24T09:36:15.357Z,70.13
2022-08-24T09:38:57.386Z,67.04
2022-08-24T09:41:42.831Z,65.69
2022-08-24T09:44:29.192Z,68.73
2022-08-24T09:47:14.484Z,63.37
2022-08-24T09:50:01.665Z,66.63
2022-08-24T09:52:38.225Z,62.39
2022-08-24T09:55:23.549Z,63.67
2022-08-24T09:58:01.704Z,60.12
2022-08-24T10:00:31.357Z,63.09
2022-08-24T10:03:12.060Z,64.26
2022-08-24T10:05:57.317Z,64.29
2022-08-24T10:08:34.673Z,64.35
2022-08-24T10:11:06.461Z,61.88
2022-08-24T10:13:38.087Z,61.87
2022-08-24T10:16:16.229Z,67.27
2022-08-24T10:18:49.074Z,65.22
2022-08-24T10:21:25.857Z,63.86
2022-08-24T10:24:01.692Z,65.60
2022-08-24T10:26:35.840Z,65.89
2022-08-24T10:29:15.121Z,58.62
2022-08-24T10:31:49.924Z,56.90
2022-08-24T10:34:27.781Z,58.51
2022-08-24T10:37:09.095Z,58.28
2022-08-24T10:39:51.756Z,62.52
2022-08-24T10:42:52.125Z,61.86
2022-08-24T10:45:33.658Z,60.92
2022-08-24T10:48:12.620Z,61.97
2022-08-24T10:50:47.167Z,64.56
2022-08-24T10:53:29.876Z,64.94
2022-08-24T10:56:04.508Z,64.83
2022-08-24T10:58:52.387Z,65.88
2022-08-24T11:01:23.090Z,70.73
2022-08-24T11:03:52.528Z,68.63
2022-08-24T11:06:21.061Z,69.32
2022-08-24T11:08:54.422Z,68.64
2022-08-24T11:11:26.326Z,66.46
2022-08-24T11:13:56.000Z,66.05
2022-08-24T11:16:25.052Z,65.51
2022-08-24T11:18:54.587Z,67.10
2022-08-24T11:21:37.190Z,66.21
2022-08-24T11:24:08.048Z,63.73
2022-08-24T11:26:46.620Z,63.78
2022-08-24T11:29:21.302Z,65.51
2022-08-24T11:31:50.473Z,67.73
2022-08-24T11:34:19.663Z,67.03
2022-08-24T11:36:47.435Z,68.72
2022-08-24T11:39:21.113Z,69.15
2022-08-24T11:41:53.699Z,68.68
2022-08-24T11:44:29.786Z,69.80
2022-08-24T11:47:02.501Z,68.78
2022-08-24T11:49:43.604Z,66.37
2022-08-24T11:52:13.082Z,69.28
2022-08-24T11:54:46.684Z,72.21
2022-08-24T11:57:18.116Z,69.98
2022-08-24T11:59:50.229Z,68.29
2022-08-24T12:02:23.967Z,65.15
2022-08-24T12:04:55.639Z,66.25
2022-08-24T12:07:27.702Z,65.05
2022-08-24T12:10:10.162Z,69.20
2022-08-24T12:12:41.912Z,69.34
2022-08-24T12:15:12.499Z,67.58
2022-08-24T12:17:41.978Z,67.25
2022-08-24T12:20:15.929Z,69.02
2022-08-24T12:22:44.255Z,68.12
2022-08-24T12:25:27.612Z,67.73
2022-08-24T12:27:57.379Z,65.00
2022-08-24T12:30:25.785Z,63.96
2022-08-24T12:32:57.906Z,64.60
2022-08-24T12:35:28.094Z,64.69
2022-08-24T12:37:58.892Z,66.33
2022-08-24T12:40:32.798Z,68.53
2022-08-24T12:43:04.375Z,70.25
2022-08-24T12:45:31.918Z,69.21
2022-08-24T12:48:01.075Z,70.29
2022-08-24T12:50:31.612Z,69.03
2022-08-24T12:53:17.030Z,67.31
2022-08-24T12:56:05.324Z,70.42
2022-08-24T12:58:53.896Z,70.62
2022-08-24T13:01:25.652Z,70.62
2022-08-24T13:04:12.404Z,67.46
2022-08-24T13:06:43.290Z,68.01
2022-08-24T13:09:15.121Z,66.80
2022-08-24T13:11:43.533Z,66.37
2022-08-24T13:14:19.485Z,67.61
2022-08-24T13:16:53.422Z,68.45
2022-08-24T13:19:34.027Z,66.91
2022-08-24T13:22:21.684Z,68.38
2022-08-24T13:24:54.452Z,68.89
2022-08-24T13:27:39.896Z,68.59
2022-08-24T13:30:19.388Z,69.47
2022-08-24T13:32:57.282Z,69.80
2022-08-24T13:35:45.845Z,69.93
2022-08-24T13:38:42.306Z,70.66
2022-08-24T13:41:13.739Z,72.12
2022-08-24T13:43:44.659Z,71.84
2022-08-24T13:46:18.470Z,71.54
2022-08-24T13:48:54.351Z,70.67
2022-08-24T13:51:29.947Z,71.73
2022-08-24T13:54:20.117Z,71.70
2022-08-24T13:56:58.610Z,72.69
2022-08-24T13:59:38.319Z,71.95
2022-08-24T14:02:08.793Z,72.14
2022-08-24T14:04:44.421Z,72.03
2022-08-24T14:07:15.849Z,72.53
2022-08-24T14:09:48.144Z,72.48
2022-08-24T14:12:23.969Z,72.29
2022-08-24T14:14:59.546Z,71.29
2022-08-24T14:17:49.455Z,71.42
2022-08-24T14:20:33.417Z,71.44
2022-08-24T14:23:04.312Z,73.37
2022-08-24T14:25:33.782Z,72.52
2022-08-24T14:28:20.195Z,71.57
2022-08-24T14:30:50.348Z,70.02
2022-08-24T14:33:28.897Z,70.36
2022-08-24T14:36:05.100Z,68.91
2022-08-24T14:38:39.175Z,68.91
2022-08-24T14:41:20.458Z,68.68
2022-08-24T14:44:01.309Z,67.59
2022-08-24T14:46:33.826Z,68.47
2022-08-24T14:49:09.336Z,67.81
2022-08-24T14:51:48.676Z,67.39
2022-08-24T14:54:25.196Z,66.37
2022-08-24T14:57:04.860Z,67.72
2022-08-24T14:59:40.361Z,67.03
2022-08-24T15:02:26.668Z,66.97
2022-08-24T15:04:56.894Z,67.08
2022-08-24T15:07:27.574Z,66.43
2022-08-24T15:09:56.078Z,66.06
2022-08-24T15:12:38.499Z,65.56
2022-08-24T15:15:09.764Z,66.05
2022-08-24T15:17:42.494Z,67.01
2022-08-24T15:20:16.050Z,67.65
2022-08-24T15:22:46.839Z,67.58
2022-08-24T15:25:19.595Z,67.30
2022-08-24T15:27:51.444Z,67.09
2022-08-24T15:30:21.648Z,66.39
2022-08-24T15:32:50.667Z,67.32
2022-08-24T15:35:25.930Z,67.24
2022-08-24T15:37:55.063Z,68.14
2022-08-24T15:40:26.875Z,68.72
2022-08-24T15:42:55.234Z,69.07
2022-08-24T15:45:23.099Z,68.98
2022-08-24T15:47:53.033Z,68.84
2022-08-24T15:50:23.549Z,70.21
2022-08-24T15:52:55.093Z,71.40
2022-08-24T15:55:32.487Z,71.86
2022-08-24T15:58:09.850Z,72.38
2022-08-24T16:00:55.211Z,73.52
2022-08-24T16:03:24.299Z,73.46
2022-08-24T16:05:52.784Z,73.44
2022-08-24T16:08:20.599Z,73.68
2022-08-24T16:10:50.913Z,74.69
2022-08-24T16:13:29.416Z,74.51
2022-08-24T16:16:00.386Z,74.47
2022-08-24T16:18:42.225Z,75.12
2022-08-24T16:21:14.359Z,75.14
2022-08-24T16:23:45.041Z,75.69
2022-08-24T16:26:21.102Z,76.81
2022-08-24T16:28:49.531Z,77.88
2022-08-24T16:31:44.279Z,78.04
2022-08-24T16:34:17.008Z,79.92
2022-08-24T16:36:44.541Z,81.63
2022-08-24T16:39:12.633Z,83.51
2022-08-24T16:41:42.947Z,84.74
2022-08-24T16:44:11.476Z,84.93
2022-08-24T16:46:40.050Z,85.90
2022-08-24T16:49:12.473Z,85.75
2022-08-24T16:51:45.220Z,86.53
2022-08-24T16:54:13.465Z,86.41
2022-08-24T16:56:42.742Z,86.76
2022-08-24T16:59:10.980Z,87.20
2022-08-24T17:01:38.600Z,87.68
2022-08-24T17:04:06.345Z,88.12
2022-08-24T17:06:34.247Z,88.31
2022-08-24T17:09:01.905Z,88.59
2022-08-24T17:11:29.693Z,88.81
2022-08-24T17:13:58.604Z,89.28
2022-08-24T17:16:26.284Z,89.18
2022-08-24T17:18:53.898Z,89.04
2022-08-24T17:21:23.280Z,89.46
2022-08-24T17:23:51.049Z,89.61
2022-08-24T17:26:21.533Z,89.57
2022-08-24T17:28:50.351Z,89.94
2022-08-24T17:31:19.459Z,90.18
2022-08-24T17:33:47.124Z,90.04
2022-08-24T17:36:15.991Z,89.78
2022-08-24T17:38:46.142Z,90.23
2022-08-24T17:41:14.762Z,90.23
2022-08-24T17:43:46.214Z,91.21
2022-08-24T17:46:15.213Z,91.73
2022-08-24T17:48:45.402Z,92.85
2022-08-24T17:51:13.523Z,93.69
2022-08-24T17:53:41.175Z,94.65
2022-08-24T17:56:08.973Z,96.18
2022-08-24T17:58:57.357Z,97.52
2022-08-24T18:01:25.334Z,98.91
2022-08-24T18:03:54.649Z,99.44
2022-08-24T18:06:23.283Z,100.00
2022-08-24T18:08:54.340Z,100.00
2022-08-24T18:11:25.830Z,100.00
2022-08-24T18:13:54.644Z,100.00
2022-08-24T18:16:23.667Z,100.00
2022-08-24T18:18:52.411Z,100.00
2022-08-24T18:21:21.728Z,100.00
2022-08-24T18:23:49.490Z,100.00
2022-08-24T18:26:19.497Z,100.00
2022-08-24T18:28:47.278Z,100.00
2022-08-24T18:31:15.606Z,100.00
2022-08-24T18:33:43.186Z,100.00
2022-08-24T18:36:12.035Z,100.00
2022-08-24T18:38:40.933Z,100.00
2022-08-24T18:41:08.537Z,100.00
2022-08-24T18:43:36.157Z,100.00
2022-08-24T18:46:04.804Z,100.00
2022-08-24T18:48:32.677Z,100.00
2022-08-24T18:51:00.253Z,100.00
2022-08-24T18:53:28.340Z,100.00
2022-08-24T18:56:00.557Z,100.00
2022-08-24T18:58:30.694Z,100.00
2022-08-24T19:00:58.330Z,100.00
2022-08-24T19:03:26.793Z,100.00
2022-08-24T19:05:54.640Z,100.00
2022-08-24T19:08:23.113Z,100.00
2022-08-24T19:10:51.602Z,100.00
2022-08-24T19:13:20.634Z,100.00
2022-08-24T19:15:48.938Z,100.00
2022-08-24T19:18:17.234Z,100.00
2022-08-24T19:20:48.479Z,100.00
2022-08-24T19:23:20.023Z,100.00
2022-08-24T19:25:47.941Z,100.00
2022-08-24T19:28:15.712Z,100.00
2022-08-24T19:30:46.650Z,100.00
2022-08-24T19:33:16.101Z,100.00
2022-08-24T19:35:43.684Z,100.00
2022-08-24T19:38:11.253Z,100.00
2022-08-24T19:40:39.148Z,100.00
2022-08-24T19:43:08.609Z,100.00
2022-08-24T19:45:54.402Z,100.00
2022-08-24T19:48:24.452Z,100.00
2022-08-24T19:50:52.540Z,100.00
2022-08-24T19:53:20.134Z,100.00
2022-08-24T19:55:50.569Z,100.00
2022-08-24T19:58:23.750Z,100.00
2022-08-24T20:00:56.002Z,100.00
2022-08-24T20:03:24.957Z,100.00
2022-08-24T20:05:52.774Z,100.00
2022-08-24T20:08:20.787Z,100.00
2022-08-24T20:10:49.691Z,100.00
2022-08-24T20:13:17.531Z,100.00
2022-08-24T20:15:45.683Z,100.00
2022-08-24T20:18:14.561Z,100.00
2022-08-24T20:20:43.585Z,100.00
2022-08-24T20:23:12.900Z,100.00
2022-08-24T20:25:40.803Z,100.00
2022-08-24T20:28:28.215Z,100.00
2022-08-24T20:30:56.174Z,100.00
2022-08-24T20:33:24.844Z,100.00
2022-08-24T20:35:53.765Z,100.00
2022-08-24T20:38:22.959Z,100.00
2022-08-24T20:40:51.191Z,100.00
2022-08-24T20:43:18.761Z,100.00
2022-08-24T20:45:46.475Z,100.00
2022-08-24T20:48:14.870Z,100.00
2022-08-24T20:50:43.190Z,100.00
2022-08-24T20:53:12.666Z,100.00
2022-08-24T20:55:40.925Z,100.00
2022-08-24T20:58:08.966Z,100.00
2022-08-24T21:00:38.312Z,100.00
2022-08-24T21:03:06.100Z,100.00
2022-08-24T21:05:33.762Z,100.00
2022-08-24T21:08:01.404Z,100.00
2022-08-24T21:10:31.623Z,100.00
2022-08-24T21:13:00.177Z,100.00
2022-08-24T21:15:28.122Z,100.00
2022-08-24T21:17:55.690Z,100.00
2022-08-24T21:20:23.535Z,100.00
2022-08-24T21:22:51.093Z,100.00
2022-08-24T21:25:19.024Z,100.00
2022-08-24T21:27:48.528Z,100.00
2022-08-24T21:30:16.975Z,100.00
2022-08-24T21:33:02.699Z,100.00
2022-08-24T21:35:30.575Z,100.00
2022-08-24T21:37:59.133Z,100.00
2022-08-24T21:40:27.680Z,100.00
2022-08-24T21:42:56.837Z,100.00
2022-08-24T21:45:24.507Z,100.00
2022-08-24T21:47:52.153Z,100.00
2022-08-24T21:50:19.750Z,100.00
2022-08-24T21:52:53.785Z,100.00
2022-08-24T21:55:21.618Z,100.00
2022-08-24T21:57:49.307Z,100.00
2022-08-24T22:00:19.257Z,100.00
2022-08-24T22:02:48.043Z,100.00
2022-08-24T22:05:15.747Z,100.00
2022-08-24T22:07:43.681Z,100.00
2022-08-24T22:10:11.941Z,100.00
2022-08-24T22:12:40.524Z,100.00
2022-08-24T22:15:09.330Z,100.00
2022-08-24T22:17:38.475Z,100.00
2022-08-24T22:20:06.496Z,100.00
2022-08-24T22:22:34.233Z,100.00
2022-08-24T22:25:01.888Z,100.00
2022-08-24T22:27:29.578Z,100.00
2022-08-24T22:29:57.739Z,100.00
2022-08-24T22:32:25.507Z,100.00
2022-08-24T22:34:54.444Z,100.00
2022-08-24T22:37:21.997Z,100.00
2022-08-24T22:39:49.574Z,100.00
2022-08-24T22:42:17.198Z,100.00
2022-08-24T22:44:45.101Z,100.00
2022-08-24T22:47:15.079Z,100.00
2022-08-24T22:49:43.507Z,100.00
2022-08-24T22:52:13.269Z,100.00
2022-08-24T22:54:41.209Z,100.00
2022-08-24T22:57:09.576Z,100.00
2022-08-24T22:59:38.242Z,100.00
2022-08-24T23:02:07.337Z,100.00
2022-08-24T23:04:36.454Z,100.00
2022-08-24T23:07:04.963Z,100.00
2022-08-24T23:09:44.395Z,100.00
2022-08-24T23:12:14.223Z,100.00
2022-08-24T23:14:42.604Z,100.00
2022-08-24T23:17:10.143Z,100.00
2022-08-24T23:19:55.425Z,100.00
2022-08-24T23:22:23.099Z,100.00
2022-08-24T23:24:52.064Z,100.00
2022-08-24T23:27:19.770Z,100.00
2022-08-24T23:29:49.453Z,100.00
2022-08-24T23:32:18.201Z,100.00
2022-08-24T23:34:46.013Z,100.00
2022-08-24T23:37:14.183Z,100.00
2022-08-24T23:39:41.733Z,100.00
2022-08-24T23:42:10.669Z,100.00
2022-08-24T23:44:39.071Z,100.00
2022-08-24T23:47:07.056Z,100.00
2022-08-24T23:49:34.760Z,100.00
2022-08-24T23:52:03.247Z,100.00
2022-08-24T23:54:30.801Z,100.00
2022-08-24T23:56:58.455Z,100.00
2022-08-24T23:59:29.421Z,100.00
